createdAt,value
2022-08-09T00:00:04.280Z,102167.38
2022-08-09T00:02:49.104Z,102173.66
2022-08-09T00:06:16.653Z,102170.06
2022-08-09T00:08:09.887Z,102169.31
2022-08-09T00:10:38.300Z,102161.44
2022-08-09T00:13:16.760Z,102170.59
2022-08-09T00:15:58.130Z,102168.94
2022-08-09T00:18:34.980Z,102174.19
2022-08-09T00:21:05.373Z,102172.63
2022-08-09T00:23:55.927Z,102170.84
2022-08-09T00:26:32.253Z,102169.97
2022-08-09T00:29:03.500Z,102175.44
2022-08-09T00:31:59.865Z,102175.44
2022-08-09T00:34:28.446Z,102173.88
2022-08-09T00:37:03.128Z,102173.94
2022-08-09T00:40:12.498Z,102174.97
2022-08-09T00:44:16.715Z,102179.59
2022-08-09T00:45:15.698Z,102174.25
2022-08-09T00:47:46.191Z,102173.59
2022-08-09T00:50:15.050Z,102168.38
2022-08-09T00:52:43.631Z,102165.19
2022-08-09T00:55:32.898Z,102172.25
2022-08-09T00:58:00.196Z,102169.44
2022-08-09T01:00:29.807Z,102170.38
2022-08-09T01:03:09.126Z,102168.69
2022-08-09T01:05:51.035Z,102174.34
2022-08-09T01:08:34.785Z,102174.25
2022-08-09T01:11:15.021Z,102186.91
2022-08-09T01:13:59.041Z,102185.16
2022-08-09T01:16:35.122Z,102183.44
2022-08-09T01:19:17.122Z,102186.97
2022-08-09T01:22:16.641Z,102179.94
2022-08-09T01:24:56.709Z,102188.91
2022-08-09T01:27:29.197Z,102187.16
2022-08-09T01:30:01.762Z,102184.72
2022-08-09T01:32:34.266Z,102189.13
2022-08-09T01:35:28.606Z,102180.16
2022-08-09T01:38:10.095Z,102185.47
2022-08-09T01:40:44.936Z,102182.09
2022-08-09T01:43:24.201Z,102189.25
2022-08-09T01:45:58.082Z,102183.91
2022-08-09T01:48:29.868Z,102187.56
2022-08-09T01:51:00.662Z,102191.25
2022-08-09T01:53:41.211Z,102182.38
2022-08-09T01:56:11.772Z,102184.16
2022-08-09T01:58:43.716Z,102182.44
2022-08-09T02:01:18.309Z,102186.06
2022-08-09T02:03:48.299Z,102183.34
2022-08-09T02:06:18.602Z,102182.53
2022-08-09T02:08:58.540Z,102176.47
2022-08-09T02:11:42.903Z,102171.13
2022-08-09T02:14:26.268Z,102169.50
2022-08-09T02:17:15.127Z,102176.75
2022-08-09T02:19:44.996Z,102174.03
2022-08-09T02:22:31.553Z,102177.63
2022-08-09T02:25:06.616Z,102177.75
2022-08-09T02:27:57.305Z,102173.41
2022-08-09T02:30:30.322Z,102177.22
2022-08-09T02:33:01.604Z,102176.28
2022-08-09T02:36:01.716Z,102181.69
2022-08-09T02:38:28.866Z,102172.66
2022-08-09T02:41:00.391Z,102176.31
2022-08-09T02:43:42.428Z,102167.56
2022-08-09T02:46:25.337Z,102169.25
2022-08-09T02:48:57.759Z,102172.75
2022-08-09T02:51:28.219Z,102169.34
2022-08-09T02:54:06.805Z,102167.56
2022-08-09T02:56:37.132Z,102167.56
2022-08-09T02:59:06.690Z,102171.06
2022-08-09T03:02:05.156Z,102171.97
2022-08-09T03:04:29.001Z,102178.41
2022-08-09T03:06:59.783Z,102181.94
2022-08-09T03:09:42.565Z,102181.94
2022-08-09T03:12:13.298Z,102181.94
2022-08-09T03:14:43.982Z,102181.09
2022-08-09T03:17:26.616Z,102190.09
2022-08-09T03:20:03.478Z,102190.22
2022-08-09T03:22:41.576Z,102190.22
2022-08-09T03:25:26.799Z,102189.31
2022-08-09T03:28:03.922Z,102194.72
2022-08-09T03:30:34.526Z,102195.56
2022-08-09T03:33:17.969Z,102191.13
2022-08-09T03:36:13.716Z,102193.97
2022-08-09T03:38:37.347Z,102195.78
2022-08-09T03:41:10.263Z,102192.16
2022-08-09T03:44:03.078Z,102185.03
2022-08-09T03:46:32.422Z,102195.09
2022-08-09T03:49:08.450Z,102199.47
2022-08-09T03:51:54.207Z,102186.16
2022-08-09T03:54:31.226Z,102202.16
2022-08-09T03:57:04.044Z,102182.59
2022-08-09T03:59:53.476Z,102195.22
2022-08-09T04:02:26.502Z,102192.44
2022-08-09T04:05:00.714Z,102196.09
2022-08-09T04:07:47.465Z,102195.09
2022-08-09T04:10:20.757Z,102196.84
2022-08-09T04:12:56.554Z,102206.63
2022-08-09T04:15:42.573Z,102203.97
2022-08-09T04:18:17.957Z,102200.38
2022-08-09T04:20:48.894Z,102211.06
2022-08-09T04:23:17.764Z,102208.47
2022-08-09T04:25:51.601Z,102214.78
2022-08-09T04:28:33.846Z,102213.81
2022-08-09T04:31:08.981Z,102219.16
2022-08-09T04:33:47.290Z,102218.28
2022-08-09T04:36:24.458Z,102220.25
2022-08-09T04:38:52.421Z,102223.72
2022-08-09T04:41:23.940Z,102224.66
2022-08-09T04:44:05.158Z,102227.34
2022-08-09T04:46:38.207Z,102225.47
2022-08-09T04:49:40.385Z,102228.13
2022-08-09T04:52:18.603Z,102235.13
2022-08-09T04:54:57.363Z,102237.81
2022-08-09T04:57:25.824Z,102237.75
2022-08-09T04:59:55.453Z,102249.31
2022-08-09T05:02:24.239Z,102244.78
2022-08-09T05:04:56.018Z,102253.75
2022-08-09T05:07:31.841Z,102251.84
2022-08-09T05:10:02.248Z,102251.72
2022-08-09T05:12:33.016Z,102249.94
2022-08-09T05:15:11.191Z,102255.22
2022-08-09T05:18:38.647Z,102248.81
2022-08-09T05:20:29.739Z,102245.97
2022-08-09T05:23:54.130Z,102252.03
2022-08-09T05:25:51.096Z,102252.06
2022-08-09T05:28:20.137Z,102247.59
2022-08-09T05:30:51.609Z,102252.75
2022-08-09T05:33:19.899Z,102249.00
2022-08-09T05:35:54.492Z,102247.97
2022-08-09T05:38:26.285Z,102241.66
2022-08-09T05:40:56.025Z,102247.75
2022-08-09T05:43:24.666Z,102251.38
2022-08-09T05:45:59.614Z,102251.22
2022-08-09T05:48:33.049Z,102259.13
2022-08-09T05:51:41.600Z,102252.88
2022-08-09T05:53:57.682Z,102262.50
2022-08-09T05:56:27.957Z,102255.47
2022-08-09T05:58:58.489Z,102260.81
2022-08-09T06:01:34.012Z,102261.56
2022-08-09T06:04:10.675Z,102266.84
2022-08-09T06:06:45.182Z,102261.28
2022-08-09T06:09:23.266Z,102268.31
2022-08-09T06:12:08.032Z,102269.97
2022-08-09T06:14:36.105Z,102267.22
2022-08-09T06:17:09.140Z,102272.28
2022-08-09T06:19:37.841Z,102273.94
2022-08-09T06:22:06.221Z,102272.78
2022-08-09T06:24:44.257Z,102266.34
2022-08-09T06:27:12.078Z,102273.34
2022-08-09T06:29:48.041Z,102272.38
2022-08-09T06:32:53.563Z,102268.63
2022-08-09T06:35:15.225Z,102270.13
2022-08-09T06:37:52.859Z,102269.91
2022-08-09T06:40:33.426Z,102282.13
2022-08-09T06:43:02.252Z,102273.94
2022-08-09T06:46:05.901Z,102284.31
2022-08-09T06:48:30.358Z,102290.25
2022-08-09T06:50:59.676Z,102289.19
2022-08-09T06:53:33.343Z,102282.75
2022-08-09T06:56:09.325Z,102286.09
2022-08-09T07:00:47.719Z,102280.44
2022-08-09T07:01:27.655Z,102290.13
2022-08-09T07:04:04.363Z,102279.09
2022-08-09T07:06:32.827Z,102291.41
2022-08-09T07:09:02.553Z,102289.63
2022-08-09T07:11:45.528Z,102289.31
2022-08-09T07:14:26.682Z,102288.09
2022-08-09T07:16:58.334Z,102296.94
2022-08-09T07:19:26.627Z,102284.06
2022-08-09T07:21:58.888Z,102276.72
2022-08-09T07:24:31.860Z,102288.03
2022-08-09T07:27:27.379Z,102291.41
2022-08-09T07:30:01.026Z,102278.72
2022-08-09T07:32:33.010Z,102289.22
2022-08-09T07:35:10.090Z,102289.88
2022-08-09T07:37:43.236Z,102291.38
2022-08-09T07:40:14.222Z,102288.44
2022-08-09T07:42:52.418Z,102287.28
2022-08-09T07:45:40.344Z,102295.09
2022-08-09T07:48:25.583Z,102291.50
2022-08-09T07:51:09.824Z,102287.56
2022-08-09T07:54:05.797Z,102286.50
2022-08-09T07:56:38.964Z,102291.50
2022-08-09T07:59:25.758Z,102280.47
2022-08-09T08:02:03.300Z,102283.03
2022-08-09T08:04:33.371Z,102280.06
2022-08-09T08:07:15.394Z,102281.78
2022-08-09T08:09:55.193Z,102278.84
2022-08-09T08:12:36.919Z,102267.72
2022-08-09T08:15:07.911Z,102272.75
2022-08-09T08:17:53.211Z,102276.03
2022-08-09T08:20:29.709Z,102286.69
2022-08-09T08:23:06.370Z,102280.81
2022-08-09T08:25:46.698Z,102278.56
2022-08-09T08:28:18.026Z,102272.84
2022-08-09T08:30:55.361Z,102274.19
2022-08-09T08:33:24.711Z,102276.16
2022-08-09T08:36:00.109Z,102286.75
2022-08-09T08:38:30.115Z,102280.78
2022-08-09T08:40:59.661Z,102277.69
2022-08-09T08:43:28.142Z,102281.09
2022-08-09T08:46:10.013Z,102282.44
2022-08-09T08:48:53.403Z,102287.50
2022-08-09T08:51:22.743Z,102281.16
2022-08-09T08:54:03.068Z,102284.00
2022-08-09T08:56:35.682Z,102275.25
2022-08-09T08:59:07.801Z,102284.97
2022-08-09T09:01:52.736Z,102279.31
2022-08-09T09:04:31.955Z,102275.16
2022-08-09T09:07:10.972Z,102279.53
2022-08-09T09:10:02.831Z,102278.19
2022-08-09T09:12:35.607Z,102276.88
2022-08-09T09:15:06.432Z,102285.50
2022-08-09T09:17:51.714Z,102277.31
2022-08-09T09:20:21.808Z,102285.81
2022-08-09T09:22:55.843Z,102286.19
2022-08-09T09:26:04.668Z,102276.75
2022-08-09T09:29:02.860Z,102287.06
2022-08-09T09:31:17.472Z,102276.72
2022-08-09T09:34:15.185Z,102281.91
2022-08-09T09:36:53.764Z,102278.97
2022-08-09T09:39:25.782Z,102279.53
2022-08-09T09:42:24.305Z,102281.22
2022-08-09T09:44:57.643Z,102282.09
2022-08-09T09:47:25.867Z,102273.81
2022-08-09T09:50:14.457Z,102272.94
2022-08-09T09:52:53.752Z,102279.25
2022-08-09T09:55:28.018Z,102269.75
2022-08-09T09:58:19.037Z,102279.88
2022-08-09T10:00:53.827Z,102272.66
2022-08-09T10:03:42.856Z,102271.84
2022-08-09T10:06:13.616Z,102274.28
2022-08-09T10:08:57.369Z,102273.03
2022-08-09T10:12:00.345Z,102261.03
2022-08-09T10:14:31.041Z,102258.88
2022-08-09T10:17:39.671Z,102256.91
2022-08-09T10:19:58.885Z,102257.50
2022-08-09T10:22:34.094Z,102254.56
2022-08-09T10:25:10.977Z,102254.91
2022-08-09T10:27:45.344Z,102256.09
2022-08-09T10:33:29.569Z,102233.50
2022-08-09T10:36:03.378Z,102240.41
2022-08-09T10:38:55.851Z,102235.19
2022-08-09T10:41:22.379Z,102246.88
2022-08-09T10:43:59.487Z,102246.59
2022-08-09T10:46:55.644Z,102245.47
2022-08-09T10:49:50.804Z,102240.41
2022-08-09T10:52:42.640Z,102245.03
2022-08-09T10:55:25.289Z,102246.06
2022-08-09T10:57:55.937Z,102233.94
2022-08-09T11:03:06.571Z,102235.03
2022-08-09T11:03:49.946Z,102232.59
2022-08-09T11:06:22.932Z,102233.75
2022-08-09T11:08:53.488Z,102233.75
2022-08-09T11:11:24.212Z,102239.56
2022-08-09T11:14:38.063Z,102243.44
2022-08-09T11:18:02.674Z,102234.56
2022-08-09T11:20:47.563Z,102237.75
2022-08-09T11:23:29.815Z,102231.91
2022-08-09T11:26:00.336Z,102239.69
2022-08-09T11:28:34.328Z,102239.69
2022-08-09T11:31:06.872Z,102244.09
2022-08-09T11:33:46.678Z,102238.69
2022-08-09T11:36:30.372Z,102233.28
2022-08-09T11:39:05.299Z,102233.25
2022-08-09T11:41:38.566Z,102220.47
2022-08-09T11:44:08.895Z,102220.66
2022-08-09T11:46:53.188Z,102224.94
2022-08-09T11:50:52.472Z,102224.47
2022-08-09T11:54:01.305Z,102217.84
2022-08-09T11:56:41.962Z,102226.22
2022-08-09T11:59:30.490Z,102224.84
2022-08-09T12:02:17.680Z,102220.28
2022-08-09T12:04:54.652Z,102209.06
2022-08-09T12:07:41.217Z,102205.22
2022-08-09T12:10:14.459Z,102204.84
2022-08-09T12:13:03.709Z,102206.00
2022-08-09T12:15:52.076Z,102198.88
2022-08-09T12:18:26.219Z,102196.78
2022-08-09T12:21:00.331Z,102188.09
2022-08-09T12:23:56.473Z,102192.91
2022-08-09T12:26:25.997Z,102182.63
2022-08-09T12:29:15.412Z,102187.69
2022-08-09T12:32:02.036Z,102169.91
2022-08-09T12:34:35.038Z,102172.72
2022-08-09T12:37:21.346Z,102176.31
2022-08-09T12:40:01.747Z,102172.50
2022-08-09T12:42:32.351Z,102155.78
2022-08-09T12:45:00.549Z,102155.16
2022-08-09T12:47:37.111Z,102156.22
2022-08-09T12:50:23.443Z,102162.41
2022-08-09T12:53:17.684Z,102156.19
2022-08-09T12:56:15.479Z,102159.34
2022-08-09T12:58:31.422Z,102151.63
2022-08-09T13:01:04.422Z,102153.03
2022-08-09T13:03:53.030Z,102149.63
2022-08-09T13:06:34.755Z,102145.59
2022-08-09T13:09:14.743Z,102140.31
2022-08-09T13:11:45.288Z,102135.84
2022-08-09T13:14:41.987Z,102137.47
2022-08-09T13:17:08.578Z,102134.56
2022-08-09T13:20:09.492Z,102136.88
2022-08-09T13:22:35.956Z,102134.59
2022-08-09T13:25:14.390Z,102131.72
2022-08-09T13:27:48.780Z,102132.09
2022-08-09T13:30:50.669Z,102129.75
2022-08-09T13:33:52.282Z,102136.06
2022-08-09T13:36:24.338Z,102139.75
2022-08-09T13:39:34.131Z,102140.88
2022-08-09T13:41:57.940Z,102139.75
2022-08-09T13:44:28.555Z,102140.72
2022-08-09T13:47:30.806Z,102134.97
2022-08-09T13:49:57.138Z,102131.38
2022-08-09T13:52:26.650Z,102127.03
2022-08-09T13:55:00.013Z,102124.69
2022-08-09T13:57:39.727Z,102128.13
2022-08-09T14:00:12.933Z,102118.59
2022-08-09T14:03:04.411Z,102120.22
2022-08-09T14:05:59.041Z,102117.56
2022-08-09T14:08:23.781Z,102103.66
2022-08-09T14:10:55.015Z,102108.50
2022-08-09T14:14:15.566Z,102108.28
2022-08-09T14:16:15.149Z,102114.09
2022-08-09T14:18:49.589Z,102115.53
2022-08-09T14:21:20.073Z,102112.81
2022-08-09T14:23:54.049Z,102109.13
2022-08-09T14:26:31.826Z,102108.19
2022-08-09T14:29:03.123Z,102106.56
2022-08-09T14:31:49.904Z,102106.56
2022-08-09T14:34:32.261Z,102112.78
2022-08-09T14:37:07.458Z,102109.81
2022-08-09T14:39:40.239Z,102108.06
2022-08-09T14:42:28.937Z,102103.94
2022-08-09T14:46:46.400Z,102102.03
2022-08-09T14:47:58.438Z,102100.97
2022-08-09T14:50:31.053Z,102098.81
2022-08-09T14:53:00.456Z,102099.47
2022-08-09T14:55:29.142Z,102102.75
2022-08-09T14:58:02.917Z,102092.06
2022-08-09T15:00:32.334Z,102096.22
2022-08-09T15:03:01.987Z,102100.34
2022-08-09T15:05:36.491Z,102095.56
2022-08-09T15:08:05.432Z,102100.16
2022-08-09T15:10:35.186Z,102096.53
2022-08-09T15:13:04.848Z,102093.56
2022-08-09T15:15:39.365Z,102096.59
2022-08-09T15:18:14.132Z,102095.16
2022-08-09T15:21:58.158Z,102094.81
2022-08-09T15:24:02.028Z,102096.69
2022-08-09T15:26:30.955Z,102085.78
2022-08-09T15:29:04.881Z,102086.97
2022-08-09T15:31:41.315Z,102076.19
2022-08-09T15:34:33.151Z,102076.78
2022-08-09T15:37:01.192Z,102074.84
2022-08-09T15:39:43.992Z,102079.53
2022-08-09T15:42:20.000Z,102088.47
2022-08-09T15:44:49.952Z,102081.34
2022-08-09T15:47:22.550Z,102076.94
2022-08-09T15:50:04.983Z,102080.28
2022-08-09T15:52:36.023Z,102074.81
2022-08-09T15:55:05.830Z,102076.56
2022-08-09T15:57:44.569Z,102073.31
2022-08-09T16:00:25.777Z,102068.66
2022-08-09T16:02:56.108Z,102071.63
2022-08-09T16:05:47.328Z,102069.31
2022-08-09T16:08:29.738Z,102075.97
2022-08-09T16:11:01.589Z,102062.56
2022-08-09T16:14:02.681Z,102059.22
2022-08-09T16:16:19.054Z,102057.25
2022-08-09T16:18:47.345Z,102059.53
2022-08-09T16:21:16.867Z,102052.56
2022-08-09T16:23:50.891Z,102052.91
2022-08-09T16:26:34.939Z,102051.06
2022-08-09T16:29:10.401Z,102059.00
2022-08-09T16:32:20.546Z,102055.03
2022-08-09T16:34:29.898Z,102055.00
2022-08-09T16:37:53.351Z,102060.94
2022-08-09T16:40:12.395Z,102048.00
2022-08-09T16:42:44.913Z,102063.75
2022-08-09T16:45:14.805Z,102068.34
2022-08-09T16:48:39.467Z,102062.84
2022-08-09T16:50:34.484Z,102059.41
2022-08-09T16:53:02.800Z,102064.72
2022-08-09T16:56:00.171Z,102059.91
2022-08-09T16:58:20.993Z,102054.06
2022-08-09T17:00:51.282Z,102056.84
2022-08-09T17:03:21.787Z,102062.16
2022-08-09T17:06:07.769Z,102057.00
2022-08-09T17:08:44.380Z,102058.09
2022-08-09T17:11:32.917Z,102050.91
2022-08-09T17:14:25.730Z,102055.75
2022-08-09T17:16:59.645Z,102062.44
2022-08-09T17:19:47.628Z,102064.56
2022-08-09T17:22:16.396Z,102055.97
2022-08-09T17:24:54.804Z,102055.69
2022-08-09T17:27:24.894Z,102058.09
2022-08-09T17:29:53.303Z,102061.59
2022-08-09T17:32:26.646Z,102061.84
2022-08-09T17:35:11.933Z,102057.00
2022-08-09T17:38:07.646Z,102064.41
2022-08-09T17:40:32.740Z,102064.00
2022-08-09T17:43:32.991Z,102067.19
2022-08-09T17:46:04.184Z,102061.25
2022-08-09T17:48:35.186Z,102072.25
2022-08-09T17:51:09.660Z,102083.31
2022-08-09T17:53:51.378Z,102073.72
2022-08-09T17:56:21.491Z,102075.78
2022-08-09T17:58:50.689Z,102085.81
2022-08-09T18:01:22.366Z,102083.06
2022-08-09T18:03:51.953Z,102084.91
2022-08-09T18:06:31.116Z,102087.16
2022-08-09T18:09:03.172Z,102085.28
2022-08-09T18:11:46.830Z,102088.50
2022-08-09T18:14:23.878Z,102099.03
2022-08-09T18:16:53.521Z,102098.34
2022-08-09T18:20:57.360Z,102102.72
2022-08-09T18:22:16.720Z,102099.91
2022-08-09T18:24:46.345Z,102108.94
2022-08-09T18:27:49.217Z,102109.28
2022-08-09T18:30:40.546Z,102111.13
2022-08-09T18:32:54.981Z,102114.09
2022-08-09T18:35:58.578Z,102114.84
2022-08-09T18:38:12.519Z,102113.63
2022-08-09T18:40:40.852Z,102121.78
2022-08-09T18:43:08.886Z,102114.84
2022-08-09T18:46:46.761Z,102113.72
2022-08-09T18:48:30.391Z,102120.34
2022-08-09T18:51:01.341Z,102118.41
2022-08-09T18:53:55.938Z,102118.03
2022-08-09T18:56:17.826Z,102122.50
2022-08-09T18:58:51.386Z,102127.97
2022-08-09T19:01:25.822Z,102132.44
2022-08-09T19:04:01.380Z,102134.56
2022-08-09T19:06:35.003Z,102140.72
2022-08-09T19:09:06.981Z,102134.22
2022-08-09T19:11:38.407Z,102140.88
2022-08-09T19:14:07.181Z,102145.34
2022-08-09T19:16:38.081Z,102149.75
2022-08-09T19:19:25.180Z,102137.25
2022-08-09T19:22:05.096Z,102140.78
2022-08-09T19:24:39.347Z,102142.00
2022-08-09T19:27:23.121Z,102148.06
2022-08-09T19:30:23.075Z,102141.25
2022-08-09T19:32:40.466Z,102145.22
2022-08-09T19:35:09.430Z,102147.75
2022-08-09T19:37:54.231Z,102155.09
2022-08-09T19:40:23.005Z,102144.97
2022-08-09T19:42:52.213Z,102144.72
2022-08-09T19:45:20.547Z,102155.78
2022-08-09T19:47:49.821Z,102150.00
2022-08-09T19:50:50.477Z,102154.78
2022-08-09T19:53:06.475Z,102155.22
2022-08-09T19:56:03.457Z,102160.09
2022-08-09T19:58:29.546Z,102157.81
2022-08-09T20:00:58.532Z,102160.94
2022-08-09T20:04:18.308Z,102164.94
2022-08-09T20:06:23.467Z,102169.00
2022-08-09T20:08:56.632Z,102164.81
2022-08-09T20:11:25.828Z,102168.53
2022-08-09T20:13:54.805Z,102172.47
2022-08-09T20:19:47.880Z,102166.97
2022-08-09T20:22:00.204Z,102171.00
2022-08-09T20:24:29.878Z,102159.53
2022-08-09T20:27:05.606Z,102160.81
2022-08-09T20:29:38.672Z,102161.16
2022-08-09T20:32:30.750Z,102157.97
2022-08-09T20:34:57.695Z,102157.47
2022-08-09T20:37:25.807Z,102154.22
2022-08-09T20:40:18.860Z,102157.28
2022-08-09T20:42:59.334Z,102156.72
2022-08-09T20:45:59.267Z,102152.63
2022-08-09T20:48:21.145Z,102157.44
2022-08-09T20:50:55.640Z,102156.84
2022-08-09T20:53:37.652Z,102158.03
2022-08-09T20:56:09.407Z,102164.63
2022-08-09T20:58:50.059Z,102167.63
2022-08-09T21:01:34.539Z,102169.72
2022-08-09T21:05:51.828Z,102173.53
2022-08-09T21:06:57.688Z,102165.63
2022-08-09T21:09:41.843Z,102170.41
2022-08-09T21:14:48.351Z,102171.69
2022-08-09T21:18:22.064Z,102184.31
2022-08-09T21:20:22.595Z,102174.69
2022-08-09T21:22:55.007Z,102188.34
2022-08-09T21:25:44.381Z,102189.47
2022-08-09T21:28:33.376Z,102183.50
2022-08-09T21:31:17.204Z,102189.78
2022-08-09T21:33:51.374Z,102183.63
2022-08-09T21:36:23.181Z,102191.94
2022-08-09T21:38:58.050Z,102195.72
2022-08-09T21:41:59.910Z,102191.19
2022-08-09T21:44:32.725Z,102183.41
2022-08-09T21:47:05.144Z,102186.28
2022-08-09T21:49:40.054Z,102194.66
2022-08-09T21:52:16.499Z,102190.41
2022-08-09T21:54:50.564Z,102195.94
2022-08-09T21:57:36.919Z,102199.97
2022-08-09T22:00:10.563Z,102197.53
2022-08-09T22:02:42.888Z,102194.84
2022-08-09T22:05:22.409Z,102207.44
2022-08-09T22:07:53.379Z,102203.88
2022-08-09T22:10:24.154Z,102205.00
2022-08-09T22:12:52.941Z,102204.25
2022-08-09T22:15:23.393Z,102203.69
2022-08-09T22:18:02.984Z,102197.50
2022-08-09T22:20:31.099Z,102202.09
2022-08-09T22:22:59.928Z,102204.25
2022-08-09T22:26:05.335Z,102194.41
2022-08-09T22:28:21.022Z,102198.09
2022-08-09T22:30:57.846Z,102196.59
2022-08-09T22:33:26.010Z,102205.75
2022-08-09T22:36:13.986Z,102206.09
2022-08-09T22:38:47.551Z,102191.72
2022-08-09T22:41:17.325Z,102210.00
2022-08-09T22:44:02.575Z,102214.44
2022-08-09T22:48:15.885Z,102214.72
2022-08-09T22:49:20.231Z,102213.03
2022-08-09T22:51:56.974Z,102217.63
2022-08-09T22:54:27.316Z,102215.13
2022-08-09T22:56:58.778Z,102217.84
2022-08-09T22:59:55.237Z,102219.88
2022-08-09T23:02:20.102Z,102228.09
2022-08-09T23:04:53.981Z,102231.09
2022-08-09T23:08:27.270Z,102236.56
2022-08-09T23:10:32.042Z,102228.69
2022-08-09T23:13:01.229Z,102238.59
2022-08-09T23:15:30.295Z,102240.53
2022-08-09T23:17:58.240Z,102240.53
2022-08-09T23:20:28.784Z,102240.66
2022-08-09T23:22:56.751Z,102246.16
2022-08-09T23:25:24.717Z,102246.47
2022-08-09T23:28:15.808Z,102242.03
2022-08-09T23:30:50.888Z,102229.75
2022-08-09T23:33:20.501Z,102229.81
2022-08-09T23:36:04.956Z,102236.28
2022-08-09T23:38:35.189Z,102234.53
2022-08-09T23:41:04.071Z,102231.09
2022-08-09T23:43:32.021Z,102234.72
2022-08-09T23:46:01.540Z,102229.56
2022-08-09T23:48:29.462Z,102233.41
2022-08-09T23:50:57.336Z,102224.63
2022-08-09T23:53:25.612Z,102228.34
2022-08-09T23:55:59.062Z,102235.59
2022-08-09T23:58:29.954Z,102237.56
